sensor_id;sensor_type;location;lat;lon;timestamp;temperature;humidity
53035;DHT22;38923;53.236;6.506;2022-07-26T00:01:25;19.10;99.90
53035;DHT22;38923;53.236;6.506;2022-07-26T00:03:50;19.10;99.90
53035;DHT22;38923;53.236;6.506;2022-07-26T00:06:17;19.10;99.90
53035;DHT22;38923;53.236;6.506;2022-07-26T00:08:43;19.10;99.90
53035;DHT22;38923;53.236;6.506;2022-07-26T00:11:09;19.10;99.90
53035;DHT22;38923;53.236;6.506;2022-07-26T00:13:34;19.10;99.90
53035;DHT22;38923;53.236;6.506;2022-07-26T00:16:01;19.10;99.90
53035;DHT22;38923;53.236;6.506;2022-07-26T00:18:27;19.10;99.90
53035;DHT22;38923;53.236;6.506;2022-07-26T00:20:53;19.10;99.90
53035;DHT22;38923;53.236;6.506;2022-07-26T00:23:18;19.10;99.90
53035;DHT22;38923;53.236;6.506;2022-07-26T00:25:44;19.00;99.90
53035;DHT22;38923;53.236;6.506;2022-07-26T00:28:10;19.10;99.90
53035;DHT22;38923;53.236;6.506;2022-07-26T00:30:36;19.10;99.90
53035;DHT22;38923;53.236;6.506;2022-07-26T00:33:03;19.10;99.90
53035;DHT22;38923;53.236;6.506;2022-07-26T00:35:29;19.10;99.90
53035;DHT22;38923;53.236;6.506;2022-07-26T00:37:55;19.00;99.90
53035;DHT22;38923;53.236;6.506;2022-07-26T00:40:21;19.10;99.90
53035;DHT22;38923;53.236;6.506;2022-07-26T00:42:47;19.10;99.90
53035;DHT22;38923;53.236;6.506;2022-07-26T00:45:13;19.10;99.90
53035;DHT22;38923;53.236;6.506;2022-07-26T00:47:39;19.10;99.90
53035;DHT22;38923;53.236;6.506;2022-07-26T00:50:08;19.00;99.90
53035;DHT22;38923;53.236;6.506;2022-07-26T00:52:34;19.00;99.90
53035;DHT22;38923;53.236;6.506;2022-07-26T00:55:00;19.00;99.90
53035;DHT22;38923;53.236;6.506;2022-07-26T00:57:26;19.00;99.90
53035;DHT22;38923;53.236;6.506;2022-07-26T00:59:52;19.00;99.90
53035;DHT22;38923;53.236;6.506;2022-07-26T01:02:17;19.00;99.90
53035;DHT22;38923;53.236;6.506;2022-07-26T01:04:44;19.00;99.90
53035;DHT22;38923;53.236;6.506;2022-07-26T01:07:11;19.00;99.90
53035;DHT22;38923;53.236;6.506;2022-07-26T01:09:38;18.90;99.90
53035;DHT22;38923;53.236;6.506;2022-07-26T01:12:04;18.90;99.90
53035;DHT22;38923;53.236;6.506;2022-07-26T01:14:30;18.90;99.90
53035;DHT22;38923;53.236;6.506;2022-07-26T01:16:55;18.90;99.90
53035;DHT22;38923;53.236;6.506;2022-07-26T01:19:21;18.90;99.90
53035;DHT22;38923;53.236;6.506;2022-07-26T01:21:48;18.90;99.90
53035;DHT22;38923;53.236;6.506;2022-07-26T01:24:14;18.90;99.90
53035;DHT22;38923;53.236;6.506;2022-07-26T01:26:40;18.90;99.90
53035;DHT22;38923;53.236;6.506;2022-07-26T01:29:06;18.90;99.90
53035;DHT22;38923;53.236;6.506;2022-07-26T01:31:32;18.90;99.90
53035;DHT22;38923;53.236;6.506;2022-07-26T01:33:57;18.80;99.90
53035;DHT22;38923;53.236;6.506;2022-07-26T01:36:23;18.80;99.90
53035;DHT22;38923;53.236;6.506;2022-07-26T01:38:49;18.80;99.90
53035;DHT22;38923;53.236;6.506;2022-07-26T01:41:15;18.80;99.90
53035;DHT22;38923;53.236;6.506;2022-07-26T01:43:41;18.80;99.90
53035;DHT22;38923;53.236;6.506;2022-07-26T01:46:08;18.70;99.90
53035;DHT22;38923;53.236;6.506;2022-07-26T01:48:34;18.80;99.90
53035;DHT22;38923;53.236;6.506;2022-07-26T01:51:00;18.80;99.90
53035;DHT22;38923;53.236;6.506;2022-07-26T01:53:25;18.70;99.90
53035;DHT22;38923;53.236;6.506;2022-07-26T01:55:51;18.70;99.90
53035;DHT22;38923;53.236;6.506;2022-07-26T01:58:17;18.70;99.90
53035;DHT22;38923;53.236;6.506;2022-07-26T02:00:43;18.70;99.90
53035;DHT22;38923;53.236;6.506;2022-07-26T02:03:09;18.70;99.90
53035;DHT22;38923;53.236;6.506;2022-07-26T02:05:35;18.70;99.90
53035;DHT22;38923;53.236;6.506;2022-07-26T02:08:01;18.70;99.90
53035;DHT22;38923;53.236;6.506;2022-07-26T02:10:27;18.70;99.90
53035;DHT22;38923;53.236;6.506;2022-07-26T02:13:12;18.70;99.90
53035;DHT22;38923;53.236;6.506;2022-07-26T02:15:38;18.70;99.90
53035;DHT22;38923;53.236;6.506;2022-07-26T02:18:04;18.60;99.90
53035;DHT22;38923;53.236;6.506;2022-07-26T02:20:30;18.40;99.90
53035;DHT22;38923;53.236;6.506;2022-07-26T02:22:59;18.10;99.90
53035;DHT22;38923;53.236;6.506;2022-07-26T02:25:25;17.90;99.90
53035;DHT22;38923;53.236;6.506;2022-07-26T02:27:51;17.80;99.90
53035;DHT22;38923;53.236;6.506;2022-07-26T02:30:17;17.50;99.90
53035;DHT22;38923;53.236;6.506;2022-07-26T02:32:42;17.20;99.90
53035;DHT22;38923;53.236;6.506;2022-07-26T02:35:09;17.00;99.90
53035;DHT22;38923;53.236;6.506;2022-07-26T02:37:34;16.80;99.90
53035;DHT22;38923;53.236;6.506;2022-07-26T02:40:00;16.80;99.90
53035;DHT22;38923;53.236;6.506;2022-07-26T02:42:27;16.70;99.90
53035;DHT22;38923;53.236;6.506;2022-07-26T02:44:52;16.60;99.90
53035;DHT22;38923;53.236;6.506;2022-07-26T02:47:19;16.60;99.90
53035;DHT22;38923;53.236;6.506;2022-07-26T02:49:44;16.60;99.90
53035;DHT22;38923;53.236;6.506;2022-07-26T02:52:10;16.60;99.90
53035;DHT22;38923;53.236;6.506;2022-07-26T02:54:36;16.60;99.90
53035;DHT22;38923;53.236;6.506;2022-07-26T02:57:02;16.60;99.90
53035;DHT22;38923;53.236;6.506;2022-07-26T02:59:28;16.60;99.90
53035;DHT22;38923;53.236;6.506;2022-07-26T03:01:54;16.60;99.90
53035;DHT22;38923;53.236;6.506;2022-07-26T03:04:20;16.60;99.90
53035;DHT22;38923;53.236;6.506;2022-07-26T03:06:45;16.60;99.90
53035;DHT22;38923;53.236;6.506;2022-07-26T03:09:11;16.60;99.90
53035;DHT22;38923;53.236;6.506;2022-07-26T03:11:37;16.50;99.90
53035;DHT22;38923;53.236;6.506;2022-07-26T03:14:03;16.40;99.90
53035;DHT22;38923;53.236;6.506;2022-07-26T03:16:29;16.40;99.90
53035;DHT22;38923;53.236;6.506;2022-07-26T03:18:54;16.40;99.90
53035;DHT22;38923;53.236;6.506;2022-07-26T03:21:20;16.40;99.90
53035;DHT22;38923;53.236;6.506;2022-07-26T03:23:46;16.40;99.90
53035;DHT22;38923;53.236;6.506;2022-07-26T03:26:11;16.40;99.90
53035;DHT22;38923;53.236;6.506;2022-07-26T03:28:37;16.40;99.90
53035;DHT22;38923;53.236;6.506;2022-07-26T03:31:04;16.50;99.90
53035;DHT22;38923;53.236;6.506;2022-07-26T03:33:29;16.50;99.90
53035;DHT22;38923;53.236;6.506;2022-07-26T03:35:55;16.50;99.90
53035;DHT22;38923;53.236;6.506;2022-07-26T03:38:21;16.60;99.90
53035;DHT22;38923;53.236;6.506;2022-07-26T03:40:47;16.60;99.90
53035;DHT22;38923;53.236;6.506;2022-07-26T03:43:12;16.50;99.90
53035;DHT22;38923;53.236;6.506;2022-07-26T03:45:38;16.50;99.90
53035;DHT22;38923;53.236;6.506;2022-07-26T03:48:04;16.50;99.90
53035;DHT22;38923;53.236;6.506;2022-07-26T03:50:30;16.50;99.90
53035;DHT22;38923;53.236;6.506;2022-07-26T03:52:56;16.40;99.90
53035;DHT22;38923;53.236;6.506;2022-07-26T03:55:21;16.40;99.90
53035;DHT22;38923;53.236;6.506;2022-07-26T03:58:05;16.30;99.90
53035;DHT22;38923;53.236;6.506;2022-07-26T04:00:31;16.30;99.90
53035;DHT22;38923;53.236;6.506;2022-07-26T04:02:57;16.40;99.90
53035;DHT22;38923;53.236;6.506;2022-07-26T04:05:22;16.40;99.90
53035;DHT22;38923;53.236;6.506;2022-07-26T04:07:48;16.40;99.90
53035;DHT22;38923;53.236;6.506;2022-07-26T04:10:15;16.40;99.90
53035;DHT22;38923;53.236;6.506;2022-07-26T04:12:41;16.40;99.90
53035;DHT22;38923;53.236;6.506;2022-07-26T04:15:22;16.40;99.90
53035;DHT22;38923;53.236;6.506;2022-07-26T04:17:47;16.30;99.90
53035;DHT22;38923;53.236;6.506;2022-07-26T04:20:14;16.30;99.90
53035;DHT22;38923;53.236;6.506;2022-07-26T04:22:40;16.30;99.90
53035;DHT22;38923;53.236;6.506;2022-07-26T04:25:08;16.30;99.90
53035;DHT22;38923;53.236;6.506;2022-07-26T04:27:35;16.30;99.90
53035;DHT22;38923;53.236;6.506;2022-07-26T04:30:01;16.20;99.90
53035;DHT22;38923;53.236;6.506;2022-07-26T04:32:27;16.10;99.90
53035;DHT22;38923;53.236;6.506;2022-07-26T04:34:53;16.10;99.90
53035;DHT22;38923;53.236;6.506;2022-07-26T04:37:18;16.00;99.90
53035;DHT22;38923;53.236;6.506;2022-07-26T04:39:44;15.90;99.90
53035;DHT22;38923;53.236;6.506;2022-07-26T04:42:10;15.30;99.90
53035;DHT22;38923;53.236;6.506;2022-07-26T04:44:36;15.80;99.90
53035;DHT22;38923;53.236;6.506;2022-07-26T04:47:02;15.80;99.90
53035;DHT22;38923;53.236;6.506;2022-07-26T04:49:28;15.80;99.90
53035;DHT22;38923;53.236;6.506;2022-07-26T04:51:54;15.90;99.90
53035;DHT22;38923;53.236;6.506;2022-07-26T04:54:19;15.90;99.90
53035;DHT22;38923;53.236;6.506;2022-07-26T04:56:47;15.90;99.90
53035;DHT22;38923;53.236;6.506;2022-07-26T04:59:13;15.90;99.90
53035;DHT22;38923;53.236;6.506;2022-07-26T05:01:39;15.90;99.90
53035;DHT22;38923;53.236;6.506;2022-07-26T05:04:05;15.90;99.90
53035;DHT22;38923;53.236;6.506;2022-07-26T05:06:30;16.00;99.90
53035;DHT22;38923;53.236;6.506;2022-07-26T05:08:59;16.00;99.90
53035;DHT22;38923;53.236;6.506;2022-07-26T05:11:25;16.00;99.90
53035;DHT22;38923;53.236;6.506;2022-07-26T05:13:51;16.00;99.90
53035;DHT22;38923;53.236;6.506;2022-07-26T05:16:16;16.00;99.90
53035;DHT22;38923;53.236;6.506;2022-07-26T05:18:42;16.00;99.90
53035;DHT22;38923;53.236;6.506;2022-07-26T05:21:08;15.90;99.90
53035;DHT22;38923;53.236;6.506;2022-07-26T05:23:34;15.80;99.90
53035;DHT22;38923;53.236;6.506;2022-07-26T05:25:59;15.80;99.90
53035;DHT22;38923;53.236;6.506;2022-07-26T05:28:25;15.70;99.90
53035;DHT22;38923;53.236;6.506;2022-07-26T05:30:51;15.60;99.90
53035;DHT22;38923;53.236;6.506;2022-07-26T05:33:16;15.60;99.90
53035;DHT22;38923;53.236;6.506;2022-07-26T05:35:42;15.60;99.90
53035;DHT22;38923;53.236;6.506;2022-07-26T05:38:08;15.60;99.90
53035;DHT22;38923;53.236;6.506;2022-07-26T05:40:34;15.60;99.90
53035;DHT22;38923;53.236;6.506;2022-07-26T05:42:59;15.60;99.90
53035;DHT22;38923;53.236;6.506;2022-07-26T05:45:25;15.70;99.90
53035;DHT22;38923;53.236;6.506;2022-07-26T05:47:51;15.70;99.90
53035;DHT22;38923;53.236;6.506;2022-07-26T05:50:18;15.80;99.90
53035;DHT22;38923;53.236;6.506;2022-07-26T05:52:44;15.80;99.90
53035;DHT22;38923;53.236;6.506;2022-07-26T05:55:10;15.90;99.90
53035;DHT22;38923;53.236;6.506;2022-07-26T05:57:36;15.90;99.90
53035;DHT22;38923;53.236;6.506;2022-07-26T06:00:09;15.90;99.90
53035;DHT22;38923;53.236;6.506;2022-07-26T06:02:35;16.00;99.90
53035;DHT22;38923;53.236;6.506;2022-07-26T06:05:01;16.10;99.90
53035;DHT22;38923;53.236;6.506;2022-07-26T06:07:26;16.10;99.90
53035;DHT22;38923;53.236;6.506;2022-07-26T06:09:52;16.20;99.90
53035;DHT22;38923;53.236;6.506;2022-07-26T06:12:18;16.10;99.90
53035;DHT22;38923;53.236;6.506;2022-07-26T06:14:44;16.10;99.90
53035;DHT22;38923;53.236;6.506;2022-07-26T06:17:09;16.10;99.90
53035;DHT22;38923;53.236;6.506;2022-07-26T06:19:35;16.10;99.90
53035;DHT22;38923;53.236;6.506;2022-07-26T06:22:01;16.10;99.90
53035;DHT22;38923;53.236;6.506;2022-07-26T06:24:27;16.10;99.90
53035;DHT22;38923;53.236;6.506;2022-07-26T06:26:54;16.00;99.90
53035;DHT22;38923;53.236;6.506;2022-07-26T06:29:21;15.90;99.90
53035;DHT22;38923;53.236;6.506;2022-07-26T06:31:47;15.80;99.90
53035;DHT22;38923;53.236;6.506;2022-07-26T06:34:13;15.80;99.90
53035;DHT22;38923;53.236;6.506;2022-07-26T06:36:39;15.80;99.90
53035;DHT22;38923;53.236;6.506;2022-07-26T06:39:05;15.90;99.90
53035;DHT22;38923;53.236;6.506;2022-07-26T06:41:30;15.90;99.90
53035;DHT22;38923;53.236;6.506;2022-07-26T06:43:56;15.90;99.90
53035;DHT22;38923;53.236;6.506;2022-07-26T06:46:22;16.00;99.90
53035;DHT22;38923;53.236;6.506;2022-07-26T06:48:48;16.10;99.90
53035;DHT22;38923;53.236;6.506;2022-07-26T06:51:14;16.20;99.90
53035;DHT22;38923;53.236;6.506;2022-07-26T06:53:39;16.30;99.90
53035;DHT22;38923;53.236;6.506;2022-07-26T06:56:05;16.30;99.90
53035;DHT22;38923;53.236;6.506;2022-07-26T06:58:31;16.30;99.90
53035;DHT22;38923;53.236;6.506;2022-07-26T07:00:57;16.40;99.90
53035;DHT22;38923;53.236;6.506;2022-07-26T07:03:23;16.40;99.90
53035;DHT22;38923;53.236;6.506;2022-07-26T07:05:49;16.40;99.90
53035;DHT22;38923;53.236;6.506;2022-07-26T07:08:14;16.30;99.90
53035;DHT22;38923;53.236;6.506;2022-07-26T07:10:40;16.20;99.90
53035;DHT22;38923;53.236;6.506;2022-07-26T07:13:06;16.30;99.90
53035;DHT22;38923;53.236;6.506;2022-07-26T07:15:32;16.30;99.90
53035;DHT22;38923;53.236;6.506;2022-07-26T07:17:57;16.40;99.90
53035;DHT22;38923;53.236;6.506;2022-07-26T07:20:23;16.40;99.90
53035;DHT22;38923;53.236;6.506;2022-07-26T07:22:49;16.50;99.90
53035;DHT22;38923;53.236;6.506;2022-07-26T07:25:15;16.50;99.90
53035;DHT22;38923;53.236;6.506;2022-07-26T07:27:40;16.50;99.90
53035;DHT22;38923;53.236;6.506;2022-07-26T07:30:06;16.60;99.90
53035;DHT22;38923;53.236;6.506;2022-07-26T07:32:34;16.60;99.90
53035;DHT22;38923;53.236;6.506;2022-07-26T07:34:59;16.10;99.90
53035;DHT22;38923;53.236;6.506;2022-07-26T07:37:25;16.70;99.90
53035;DHT22;38923;53.236;6.506;2022-07-26T07:39:51;16.60;99.90
53035;DHT22;38923;53.236;6.506;2022-07-26T07:42:17;16.40;99.90
53035;DHT22;38923;53.236;6.506;2022-07-26T07:44:43;16.30;99.90
53035;DHT22;38923;53.236;6.506;2022-07-26T07:47:09;16.20;99.90
53035;DHT22;38923;53.236;6.506;2022-07-26T07:49:35;16.10;99.90
53035;DHT22;38923;53.236;6.506;2022-07-26T07:52:01;16.10;99.90
53035;DHT22;38923;53.236;6.506;2022-07-26T07:54:26;16.20;99.90
53035;DHT22;38923;53.236;6.506;2022-07-26T07:56:52;16.20;99.90
53035;DHT22;38923;53.236;6.506;2022-07-26T07:59:21;16.20;99.90
53035;DHT22;38923;53.236;6.506;2022-07-26T08:01:47;16.30;99.90
53035;DHT22;38923;53.236;6.506;2022-07-26T08:04:13;16.30;99.90
53035;DHT22;38923;53.236;6.506;2022-07-26T08:06:39;16.30;99.90
53035;DHT22;38923;53.236;6.506;2022-07-26T08:09:04;16.30;99.90
53035;DHT22;38923;53.236;6.506;2022-07-26T08:11:30;16.40;99.90
53035;DHT22;38923;53.236;6.506;2022-07-26T08:13:56;16.50;99.90
53035;DHT22;38923;53.236;6.506;2022-07-26T08:16:22;16.60;99.90
53035;DHT22;38923;53.236;6.506;2022-07-26T08:18:48;16.70;99.90
53035;DHT22;38923;53.236;6.506;2022-07-26T08:21:14;16.80;99.90
53035;DHT22;38923;53.236;6.506;2022-07-26T08:23:39;16.80;99.90
53035;DHT22;38923;53.236;6.506;2022-07-26T08:26:05;16.90;99.90
53035;DHT22;38923;53.236;6.506;2022-07-26T08:28:31;16.90;99.90
53035;DHT22;38923;53.236;6.506;2022-07-26T08:30:57;17.00;99.90
53035;DHT22;38923;53.236;6.506;2022-07-26T08:33:23;17.00;99.90
53035;DHT22;38923;53.236;6.506;2022-07-26T08:35:48;16.90;99.90
53035;DHT22;38923;53.236;6.506;2022-07-26T08:38:14;16.90;99.90
53035;DHT22;38923;53.236;6.506;2022-07-26T08:40:40;16.90;99.90
53035;DHT22;38923;53.236;6.506;2022-07-26T08:43:05;16.80;99.90
53035;DHT22;38923;53.236;6.506;2022-07-26T08:45:33;16.80;99.90
53035;DHT22;38923;53.236;6.506;2022-07-26T08:47:59;16.90;99.90
53035;DHT22;38923;53.236;6.506;2022-07-26T08:50:28;17.00;99.90
53035;DHT22;38923;53.236;6.506;2022-07-26T08:52:57;17.00;99.90
53035;DHT22;38923;53.236;6.506;2022-07-26T08:55:24;17.10;99.90
53035;DHT22;38923;53.236;6.506;2022-07-26T08:57:49;16.90;99.90
53035;DHT22;38923;53.236;6.506;2022-07-26T09:00:24;16.80;99.90
53035;DHT22;38923;53.236;6.506;2022-07-26T09:02:51;16.70;99.90
53035;DHT22;38923;53.236;6.506;2022-07-26T09:05:26;16.70;99.90
53035;DHT22;38923;53.236;6.506;2022-07-26T09:07:52;16.80;99.90
53035;DHT22;38923;53.236;6.506;2022-07-26T09:10:18;16.80;99.90
53035;DHT22;38923;53.236;6.506;2022-07-26T09:12:44;16.80;99.90
53035;DHT22;38923;53.236;6.506;2022-07-26T09:15:19;16.80;99.90
53035;DHT22;38923;53.236;6.506;2022-07-26T09:17:48;16.70;99.90
53035;DHT22;38923;53.236;6.506;2022-07-26T09:20:26;16.70;99.90
53035;DHT22;38923;53.236;6.506;2022-07-26T09:22:56;16.70;99.90
53035;DHT22;38923;53.236;6.506;2022-07-26T09:25:23;16.80;99.90
53035;DHT22;38923;53.236;6.506;2022-07-26T09:27:50;16.90;99.90
53035;DHT22;38923;53.236;6.506;2022-07-26T09:30:16;16.90;99.90
53035;DHT22;38923;53.236;6.506;2022-07-26T09:32:56;17.00;99.90
53035;DHT22;38923;53.236;6.506;2022-07-26T09:35:22;17.00;99.90
53035;DHT22;38923;53.236;6.506;2022-07-26T09:37:48;17.00;99.90
53035;DHT22;38923;53.236;6.506;2022-07-26T09:40:15;16.90;99.90
53035;DHT22;38923;53.236;6.506;2022-07-26T09:42:59;17.00;99.90
53035;DHT22;38923;53.236;6.506;2022-07-26T09:45:25;17.00;99.90
53035;DHT22;38923;53.236;6.506;2022-07-26T09:47:52;17.00;99.90
53035;DHT22;38923;53.236;6.506;2022-07-26T09:50:20;17.00;99.90
53035;DHT22;38923;53.236;6.506;2022-07-26T09:53:06;17.00;99.90
53035;DHT22;38923;53.236;6.506;2022-07-26T09:58:14;17.10;99.90
53035;DHT22;38923;53.236;6.506;2022-07-26T10:00:41;17.10;99.90
53035;DHT22;38923;53.236;6.506;2022-07-26T10:03:07;17.20;99.90
53035;DHT22;38923;53.236;6.506;2022-07-26T10:05:33;17.20;99.90
53035;DHT22;38923;53.236;6.506;2022-07-26T10:07:59;17.30;99.90
53035;DHT22;38923;53.236;6.506;2022-07-26T10:10:32;17.40;99.90
53035;DHT22;38923;53.236;6.506;2022-07-26T10:12:59;17.40;99.90
53035;DHT22;38923;53.236;6.506;2022-07-26T10:15:35;17.40;99.90
53035;DHT22;38923;53.236;6.506;2022-07-26T10:18:02;17.40;99.90
53035;DHT22;38923;53.236;6.506;2022-07-26T10:20:58;17.50;99.90
53035;DHT22;38923;53.236;6.506;2022-07-26T10:23:38;17.50;99.90
53035;DHT22;38923;53.236;6.506;2022-07-26T10:26:07;17.60;99.90
53035;DHT22;38923;53.236;6.506;2022-07-26T10:28:34;17.70;99.90
53035;DHT22;38923;53.236;6.506;2022-07-26T10:33:50;17.70;99.90
53035;DHT22;38923;53.236;6.506;2022-07-26T10:36:36;17.70;99.90
53035;DHT22;38923;53.236;6.506;2022-07-26T10:39:08;17.70;99.90
53035;DHT22;38923;53.236;6.506;2022-07-26T10:41:40;17.70;99.90
53035;DHT22;38923;53.236;6.506;2022-07-26T10:44:16;17.70;99.90
53035;DHT22;38923;53.236;6.506;2022-07-26T10:47:02;17.80;99.90
53035;DHT22;38923;53.236;6.506;2022-07-26T10:52:23;18.00;99.90
53035;DHT22;38923;53.236;6.506;2022-07-26T10:57:25;18.10;99.90
53035;DHT22;38923;53.236;6.506;2022-07-26T10:59:51;18.10;99.90
53035;DHT22;38923;53.236;6.506;2022-07-26T11:02:21;18.10;99.90
53035;DHT22;38923;53.236;6.506;2022-07-26T11:04:48;18.20;99.90
53035;DHT22;38923;53.236;6.506;2022-07-26T11:07:14;18.20;99.90
53035;DHT22;38923;53.236;6.506;2022-07-26T11:09:40;18.10;99.90
53035;DHT22;38923;53.236;6.506;2022-07-26T11:12:19;18.20;99.90
53035;DHT22;38923;53.236;6.506;2022-07-26T11:14:46;18.20;99.90
53035;DHT22;38923;53.236;6.506;2022-07-26T11:17:26;18.20;99.90
53035;DHT22;38923;53.236;6.506;2022-07-26T11:19:52;18.20;99.90
53035;DHT22;38923;53.236;6.506;2022-07-26T11:22:18;18.30;99.90
53035;DHT22;38923;53.236;6.506;2022-07-26T11:24:44;18.30;99.90
53035;DHT22;38923;53.236;6.506;2022-07-26T11:27:10;18.20;99.90
53035;DHT22;38923;53.236;6.506;2022-07-26T11:29:37;18.20;99.90
53035;DHT22;38923;53.236;6.506;2022-07-26T11:32:04;18.20;99.90
53035;DHT22;38923;53.236;6.506;2022-07-26T11:34:32;18.20;99.90
53035;DHT22;38923;53.236;6.506;2022-07-26T11:37:01;18.10;99.90
53035;DHT22;38923;53.236;6.506;2022-07-26T11:39:33;18.10;99.90
53035;DHT22;38923;53.236;6.506;2022-07-26T11:42:01;18.10;99.90
53035;DHT22;38923;53.236;6.506;2022-07-26T11:44:27;18.20;99.90
53035;DHT22;38923;53.236;6.506;2022-07-26T11:46:53;18.30;99.90
53035;DHT22;38923;53.236;6.506;2022-07-26T11:49:25;18.40;99.90
53035;DHT22;38923;53.236;6.506;2022-07-26T11:51:52;18.40;99.90
53035;DHT22;38923;53.236;6.506;2022-07-26T11:54:19;18.40;99.90
53035;DHT22;38923;53.236;6.506;2022-07-26T11:56:56;18.50;99.90
53035;DHT22;38923;53.236;6.506;2022-07-26T11:59:24;18.60;99.90
53035;DHT22;38923;53.236;6.506;2022-07-26T12:01:51;18.70;99.90
53035;DHT22;38923;53.236;6.506;2022-07-26T12:04:22;18.70;99.90
53035;DHT22;38923;53.236;6.506;2022-07-26T12:06:49;18.80;99.90
53035;DHT22;38923;53.236;6.506;2022-07-26T12:09:33;18.80;99.90
53035;DHT22;38923;53.236;6.506;2022-07-26T12:11:59;18.80;99.90
53035;DHT22;38923;53.236;6.506;2022-07-26T12:14:30;18.60;99.90
53035;DHT22;38923;53.236;6.506;2022-07-26T12:16:56;18.50;99.90
53035;DHT22;38923;53.236;6.506;2022-07-26T12:19:25;18.40;99.90
53035;DHT22;38923;53.236;6.506;2022-07-26T12:27:12;18.40;99.90
53035;DHT22;38923;53.236;6.506;2022-07-26T12:29:41;18.40;99.90
53035;DHT22;38923;53.236;6.506;2022-07-26T12:34:41;18.40;99.90
53035;DHT22;38923;53.236;6.506;2022-07-26T12:37:09;18.40;99.90
53035;DHT22;38923;53.236;6.506;2022-07-26T12:39:35;18.50;99.90
53035;DHT22;38923;53.236;6.506;2022-07-26T12:42:22;18.50;99.90
53035;DHT22;38923;53.236;6.506;2022-07-26T12:44:48;18.50;99.90
53035;DHT22;38923;53.236;6.506;2022-07-26T12:47:14;18.60;99.90
53035;DHT22;38923;53.236;6.506;2022-07-26T12:49:39;18.60;99.90
53035;DHT22;38923;53.236;6.506;2022-07-26T12:52:05;18.50;99.90
53035;DHT22;38923;53.236;6.506;2022-07-26T12:54:31;18.40;99.90
53035;DHT22;38923;53.236;6.506;2022-07-26T12:56:56;18.30;99.90
53035;DHT22;38923;53.236;6.506;2022-07-26T12:59:22;18.20;99.90
53035;DHT22;38923;53.236;6.506;2022-07-26T13:01:48;18.10;99.90
53035;DHT22;38923;53.236;6.506;2022-07-26T13:04:13;18.10;99.90
53035;DHT22;38923;53.236;6.506;2022-07-26T13:06:39;18.10;99.90
53035;DHT22;38923;53.236;6.506;2022-07-26T13:09:05;18.10;99.90
53035;DHT22;38923;53.236;6.506;2022-07-26T13:11:30;18.10;99.90
53035;DHT22;38923;53.236;6.506;2022-07-26T13:13:56;18.00;99.90
53035;DHT22;38923;53.236;6.506;2022-07-26T13:16:22;18.00;99.90
53035;DHT22;38923;53.236;6.506;2022-07-26T13:18:47;18.00;99.90
53035;DHT22;38923;53.236;6.506;2022-07-26T13:21:13;18.00;99.90
53035;DHT22;38923;53.236;6.506;2022-07-26T13:23:39;17.20;99.90
53035;DHT22;38923;53.236;6.506;2022-07-26T13:26:05;17.90;99.90
53035;DHT22;38923;53.236;6.506;2022-07-26T13:28:30;18.00;99.90
53035;DHT22;38923;53.236;6.506;2022-07-26T13:30:56;18.00;99.90
53035;DHT22;38923;53.236;6.506;2022-07-26T13:33:22;18.10;99.90
53035;DHT22;38923;53.236;6.506;2022-07-26T13:35:47;18.10;99.90
53035;DHT22;38923;53.236;6.506;2022-07-26T13:38:13;18.20;99.90
53035;DHT22;38923;53.236;6.506;2022-07-26T13:40:39;18.30;99.90
53035;DHT22;38923;53.236;6.506;2022-07-26T13:43:04;18.40;99.90
53035;DHT22;38923;53.236;6.506;2022-07-26T13:45:30;18.50;99.90
53035;DHT22;38923;53.236;6.506;2022-07-26T13:47:57;18.60;99.90
53035;DHT22;38923;53.236;6.506;2022-07-26T13:50:22;18.60;99.90
53035;DHT22;38923;53.236;6.506;2022-07-26T13:52:48;18.70;99.90
53035;DHT22;38923;53.236;6.506;2022-07-26T13:55:14;18.90;99.90
53035;DHT22;38923;53.236;6.506;2022-07-26T13:57:40;18.90;99.90
53035;DHT22;38923;53.236;6.506;2022-07-26T14:00:06;18.90;99.90
53035;DHT22;38923;53.236;6.506;2022-07-26T14:02:32;18.90;99.90
53035;DHT22;38923;53.236;6.506;2022-07-26T14:04:57;18.90;99.90
53035;DHT22;38923;53.236;6.506;2022-07-26T14:07:23;18.80;99.90
53035;DHT22;38923;53.236;6.506;2022-07-26T14:09:49;18.80;99.90
53035;DHT22;38923;53.236;6.506;2022-07-26T14:12:14;18.90;99.90
53035;DHT22;38923;53.236;6.506;2022-07-26T14:14:40;18.90;99.90
53035;DHT22;38923;53.236;6.506;2022-07-26T14:17:06;19.00;99.90
53035;DHT22;38923;53.236;6.506;2022-07-26T14:19:31;19.00;99.90
53035;DHT22;38923;53.236;6.506;2022-07-26T14:21:57;18.90;99.90
53035;DHT22;38923;53.236;6.506;2022-07-26T14:24:23;18.80;99.90
53035;DHT22;38923;53.236;6.506;2022-07-26T14:26:49;18.70;99.90
53035;DHT22;38923;53.236;6.506;2022-07-26T14:29:15;18.70;99.90
53035;DHT22;38923;53.236;6.506;2022-07-26T14:31:41;18.70;99.90
53035;DHT22;38923;53.236;6.506;2022-07-26T14:34:07;18.70;99.90
53035;DHT22;38923;53.236;6.506;2022-07-26T14:36:32;18.70;99.90
53035;DHT22;38923;53.236;6.506;2022-07-26T14:38:58;18.60;99.90
53035;DHT22;38923;53.236;6.506;2022-07-26T14:41:24;18.60;99.90
53035;DHT22;38923;53.236;6.506;2022-07-26T14:43:49;18.60;99.90
53035;DHT22;38923;53.236;6.506;2022-07-26T14:46:15;18.70;99.90
53035;DHT22;38923;53.236;6.506;2022-07-26T14:48:41;18.70;99.90
53035;DHT22;38923;53.236;6.506;2022-07-26T14:51:06;18.80;99.90
53035;DHT22;38923;53.236;6.506;2022-07-26T14:53:32;18.80;99.90
53035;DHT22;38923;53.236;6.506;2022-07-26T14:55:58;18.70;99.90
53035;DHT22;38923;53.236;6.506;2022-07-26T14:58:24;18.60;99.90
53035;DHT22;38923;53.236;6.506;2022-07-26T15:00:50;18.60;99.90
53035;DHT22;38923;53.236;6.506;2022-07-26T15:03:17;18.60;99.90
53035;DHT22;38923;53.236;6.506;2022-07-26T15:05:43;18.40;99.90
53035;DHT22;38923;53.236;6.506;2022-07-26T15:08:10;18.40;99.90
53035;DHT22;38923;53.236;6.506;2022-07-26T15:10:36;18.30;99.90
53035;DHT22;38923;53.236;6.506;2022-07-26T15:13:03;18.30;99.90
53035;DHT22;38923;53.236;6.506;2022-07-26T15:15:30;18.20;99.90
53035;DHT22;38923;53.236;6.506;2022-07-26T15:17:56;18.10;99.90
53035;DHT22;38923;53.236;6.506;2022-07-26T15:20:22;18.10;99.90
53035;DHT22;38923;53.236;6.506;2022-07-26T15:22:51;18.10;99.90
53035;DHT22;38923;53.236;6.506;2022-07-26T15:25:18;18.20;99.90
53035;DHT22;38923;53.236;6.506;2022-07-26T15:27:44;18.20;99.90
53035;DHT22;38923;53.236;6.506;2022-07-26T15:30:10;18.20;99.90
53035;DHT22;38923;53.236;6.506;2022-07-26T15:32:36;18.20;99.90
53035;DHT22;38923;53.236;6.506;2022-07-26T15:35:03;18.20;99.90
53035;DHT22;38923;53.236;6.506;2022-07-26T15:37:29;18.20;99.90
53035;DHT22;38923;53.236;6.506;2022-07-26T15:39:55;18.10;99.90
53035;DHT22;38923;53.236;6.506;2022-07-26T15:42:21;18.00;99.90
53035;DHT22;38923;53.236;6.506;2022-07-26T15:44:46;18.00;99.90
53035;DHT22;38923;53.236;6.506;2022-07-26T15:47:12;17.90;99.90